Observation data for Guthrie on 05/24/2020      Previous  Date  Next       Current Mesonet Observations  Soil Data  Daily Summary Page  Observations in Plain Language
KPFS 240500Z 07008KT 20/12 A2979 RMK A01 T02030120  RH  061%=      5-min Rain = 0
KPFS 240505Z 09006G11KT 20/12 A2979 RMK A01 T02020122  RH  062%=      5-min Rain = 0
KPFS 240510Z 11009G14KT 20/13 A298 RMK A01 T01960126  RH  066%=      5-min Rain = 0
KPFS 240515Z 15010KT 19/13 A298 RMK A01 T01920129  RH  069%=      5-min Rain = 0
KPFS 240520Z 11008KT 19/13 A2979 RMK A01 T01900129  RH  071%=      5-min Rain = 0
KPFS 240525Z 13012KT 19/13 A2979 RMK A01 T01910128  RH  070%=      5-min Rain = 0
KPFS 240530Z 15010KT 19/13 A298 RMK A01 T01940125  RH  067%=      5-min Rain = 0
KPFS 240535Z 16007KT 19/13 A298 RMK A01 T01880129  RH  071%=      5-min Rain = 0
KPFS 240540Z 15007KT 19/13 A298 RMK A01 T01860129  RH  072%=      5-min Rain = 0
KPFS 240545Z 16007KT 19/13 A298 RMK A01 T01860129  RH  072%=      5-min Rain = 0
KPFS 240550Z 15008KT 18/13 A298 RMK A01 T01840130  RH  074%=      5-min Rain = 0
KPFS 240555Z 13008KT 19/13 A298 RMK A01 T01850130  RH  073%=      5-min Rain = 0
KPFS 240600Z 12008KT 18/13 A298 RMK A01 T01840130  RH  073%=      5-min Rain = 0
KPFS 240605Z 11009G14KT 19/13 A298 RMK A01 T01870127  RH  071%=      5-min Rain = 0
KPFS 240610Z 11005G12KT 19/12 A298 RMK A01 T01930123  RH  066%=      5-min Rain = 0
KPFS 240615Z 17003KT 19/12 A2981 RMK A01 T01920124  RH  067%=      5-min Rain = 0
KPFS 240620Z 23002KT 19/13 A2981 RMK A01 T01850130  RH  073%=      5-min Rain = 0
KPFS 240625Z 15002KT 18/13 A2981 RMK A01 T01810131  RH  075%=      5-min Rain = 0
KPFS 240630Z 09005KT 19/13 A298 RMK A01 T01850126  RH  071%=      5-min Rain = 0
KPFS 240635Z 11006KT 19/12 A2981 RMK A01 T01910123  RH  067%=      5-min Rain = 0
KPFS 240640Z 13006KT 19/13 A2981 RMK A01 T01890125  RH  069%=      5-min Rain = 0
KPFS 240645Z 16004KT 19/13 A2981 RMK A01 T01850128  RH  072%=      5-min Rain = 0
KPFS 240650Z 20002KT 18/13 A2981 RMK A01 T01810131  RH  076%=      5-min Rain = 0
KPFS 240655Z 33002KT 18/13 A2981 RMK A01 T01770133  RH  079%=      5-min Rain = 0
KPFS 240700Z 21001KT 18/13 A2981 RMK A01 T01760133  RH  079%=      5-min Rain = 0
KPFS 240705Z 22002KT 18/14 A2981 RMK A01 T01750135  RH  080%=      5-min Rain = 0
KPFS 240710Z 21002KT 18/13 A2981 RMK A01 T01750134  RH  080%=      5-min Rain = 0
KPFS 240715Z 19004KT 18/13 A2981 RMK A01 T01770133  RH  079%=      5-min Rain = 0
KPFS 240720Z 18004KT 18/13 A2982 RMK A01 T01780132  RH  078%=      5-min Rain = 0
KPFS 240725Z 18003KT 18/13 A2982 RMK A01 T01770132  RH  078%=      5-min Rain = 0
KPFS 240730Z 16004KT 18/13 A2982 RMK A01 T01760132  RH  078%=      5-min Rain = 0
KPFS 240735Z 16007KT 18/13 A2982 RMK A01 T01790129  RH  075%=      5-min Rain = 0
KPFS 240740Z 16008KT 18/13 A2982 RMK A01 T01830126  RH  072%=      5-min Rain = 0
KPFS 240745Z 17008KT 18/13 A2982 RMK A01 T01830127  RH  073%=      5-min Rain = 0
KPFS 240750Z 18007KT 18/13 A2982 RMK A01 T01800128  RH  075%=      5-min Rain = 0
KPFS 240755Z 18007KT 18/13 A2982 RMK A01 T01790129  RH  076%=      5-min Rain = 0
KPFS 240800Z 17006KT 18/13 A2982 RMK A01 T01770130  RH  077%=      5-min Rain = 0
KPFS 240805Z 18007KT 18/13 A2982 RMK A01 T01770130  RH  077%=      5-min Rain = 0
KPFS 240810Z 18006KT 18/13 A2982 RMK A01 T01770130  RH  077%=      5-min Rain = 0
KPFS 240815Z 17006KT 18/13 A2982 RMK A01 T01760131  RH  077%=      5-min Rain = 0
KPFS 240820Z 18006KT 18/13 A2982 RMK A01 T01760131  RH  078%=      5-min Rain = 0
KPFS 240825Z 18005KT 18/13 A2982 RMK A01 T01750131  RH  078%=      5-min Rain = 0
KPFS 240830Z 19004KT 17/13 A2982 RMK A01 T01740131  RH  079%=      5-min Rain = 0
KPFS 240835Z 19004KT 17/13 A2982 RMK A01 T01740131  RH  079%=      5-min Rain = 0
KPFS 240840Z 19005KT 18/13 A2982 RMK A01 T01750130  RH  078%=      5-min Rain = 0
KPFS 240845Z 18004KT 18/13 A2982 RMK A01 T01750130  RH  078%=      5-min Rain = 0
KPFS 240850Z 18005KT 18/13 A2982 RMK A01 T01750130  RH  078%=      5-min Rain = 0
KPFS 240855Z 19004KT 18/13 A2982 RMK A01 T01750130  RH  078%=      5-min Rain = 0
KPFS 240900Z 18005KT 17/13 A2982 RMK A01 T01730130  RH  079%=      5-min Rain = 0
KPFS 240905Z 18005KT 17/13 A2982 RMK A01 T01720131  RH  080%=      5-min Rain = 0
KPFS 240910Z 19005KT 17/13 A2982 RMK A01 T01720131  RH  080%=      5-min Rain = 0
KPFS 240915Z 20006KT 17/13 A2982 RMK A01 T01710132  RH  081%=      5-min Rain = 0
KPFS 240920Z 21006KT 17/13 A2982 RMK A01 T01700132  RH  081%=      5-min Rain = 0
KPFS 240925Z 19006KT 17/13 A2983 RMK A01 T01690132  RH  082%=      5-min Rain = 0
KPFS 240930Z 19006KT 17/13 A2983 RMK A01 T01690132  RH  082%=      5-min Rain = 0
KPFS 240935Z 19006KT 17/13 A2983 RMK A01 T01690132  RH  082%=      5-min Rain = 0
KPFS 240940Z 18006KT 17/13 A2982 RMK A01 T01670133  RH  083%=      5-min Rain = 0
KPFS 240945Z 18007KT 17/13 A2982 RMK A01 T01660133  RH  084%=      5-min Rain = 0
KPFS 240950Z 17005KT 17/13 A2982 RMK A01 T01660133  RH  084%=      5-min Rain = 0
KPFS 240955Z 17005KT 17/13 A2982 RMK A01 T01660134  RH  085%=      5-min Rain = 0
KPFS 241000Z 17004KT 17/13 A2982 RMK A01 T01660133  RH  084%=      5-min Rain = 0
KPFS 241005Z 18003KT 17/13 A2982 RMK A01 T01650133  RH  084%=      5-min Rain = 0
KPFS 241010Z 20004KT 16/13 A2983 RMK A01 T01630133  RH  086%=      5-min Rain = 0
KPFS 241015Z 20004KT 16/13 A2983 RMK A01 T01610133  RH  087%=      5-min Rain = 0
KPFS 241020Z 19005KT 16/13 A2983 RMK A01 T01590133  RH  088%=      5-min Rain = 0
KPFS 241025Z 19006KT 16/13 A2982 RMK A01 T01590134  RH  089%=      5-min Rain = 0
KPFS 241030Z 19006KT 16/14 A2982 RMK A01 T01590135  RH  089%=      5-min Rain = 0
KPFS 241035Z 19006KT 16/14 A2982 RMK A01 T01590135  RH  089%=      5-min Rain = 0
KPFS 241040Z 18006KT 16/14 A2982 RMK A01 T01590135  RH  089%=      5-min Rain = 0
KPFS 241045Z 18006KT 16/14 A2982 RMK A01 T01590135  RH  089%=      5-min Rain = 0
KPFS 241050Z 18006KT 16/13 A2982 RMK A01 T01590134  RH  089%=      5-min Rain = 0
KPFS 241055Z 18005KT 16/13 A2982 RMK A01 T01580134  RH  089%=      5-min Rain = 0
KPFS 241100Z 19005KT 16/13 A2982 RMK A01 T01580134  RH  089%=      5-min Rain = 0
KPFS 241105Z 18005KT 16/13 A2982 RMK A01 T01580134  RH  089%=      5-min Rain = 0
KPFS 241110Z 17005KT 16/13 A2982 RMK A01 T01570134  RH  089%=      5-min Rain = 0
KPFS 241115Z 17005KT 16/13 A2982 RMK A01 T01580134  RH  089%=      5-min Rain = 0
KPFS 241120Z 18005KT 16/13 A2982 RMK A01 T01580134  RH  089%=      5-min Rain = 0
KPFS 241125Z 18006KT 16/13 A2982 RMK A01 T01580134  RH  089%=      5-min Rain = 0
KPFS 241130Z 18006KT 16/13 A2982 RMK A01 T01570134  RH  089%=      5-min Rain = 0
KPFS 241135Z 20005KT 16/13 A2982 RMK A01 T01550132  RH  090%=      5-min Rain = 0
KPFS 241140Z 20005KT 15/13 A2982 RMK A01 T01530131  RH  090%=      5-min Rain = 0
KPFS 241145Z 19005KT 15/13 A2982 RMK A01 T01520132  RH  091%=      5-min Rain = 0
KPFS 241150Z 18006KT 15/13 A2982 RMK A01 T01530133  RH  092%=      5-min Rain = 0
KPFS 241155Z 18006KT 15/13 A2982 RMK A01 T01540134  RH  092%=      5-min Rain = 0
KPFS 241200Z 17007KT 16/14 A2982 RMK A01 T01550135  RH  092%=      5-min Rain = 0
KPFS 241205Z 18007KT 16/14 A2982 RMK A01 T01570136  RH  091%=      5-min Rain = 0
KPFS 241210Z 18006KT 16/14 A2983 RMK A01 T01580136  RH  090%=      5-min Rain = 0
KPFS 241215Z 19006KT 16/14 A2983 RMK A01 T01580135  RH  090%=      5-min Rain = 0
KPFS 241220Z 19007KT 16/14 A2983 RMK A01 T01590136  RH  090%=      5-min Rain = 0
KPFS 241225Z 19007KT 16/14 A2983 RMK A01 T01620138  RH  090%=      5-min Rain = 0
KPFS 241230Z 18008KT 16/14 A2983 RMK A01 T01640140  RH  089%=      5-min Rain = 0
KPFS 241235Z 19007KT 17/14 A2983 RMK A01 T01670141  RH  088%=      5-min Rain = 0
KPFS 241240Z 19008KT 17/14 A2983 RMK A01 T01710143  RH  087%=      5-min Rain = 0
KPFS 241245Z 19007KT 18/14 A2983 RMK A01 T01750144  RH  086%=      5-min Rain = 0
KPFS 241250Z 19007KT 18/15 A2983 RMK A01 T01800145  RH  083%=      5-min Rain = 0
KPFS 241255Z 19007KT 18/15 A2983 RMK A01 T01840145  RH  082%=      5-min Rain = 0
KPFS 241300Z 19008KT 19/15 A2983 RMK A01 T01880145  RH  080%=      5-min Rain = 0
KPFS 241305Z 19009KT 19/15 A2983 RMK A01 T01910145  RH  078%=      5-min Rain = 0
KPFS 241310Z 18010KT 19/15 A2983 RMK A01 T01940146  RH  077%=      5-min Rain = 0
KPFS 241315Z 18010G15KT 20/15 A2983 RMK A01 T01970148  RH  077%=      5-min Rain = 0
KPFS 241320Z 18010KT 20/15 A2983 RMK A01 T01990149  RH  076%=      5-min Rain = 0
KPFS 241325Z 18010KT 20/15 A2984 RMK A01 T02000149  RH  076%=      5-min Rain = 0
KPFS 241330Z 18012G17KT 20/15 A2984 RMK A01 T02020151  RH  076%=      5-min Rain = 0
KPFS 241335Z 18014G19KT 20/15 A2984 RMK A01 T02040153  RH  076%=      5-min Rain = 0
KPFS 241340Z 17014KT 20/15 A2984 RMK A01 T02040154  RH  077%=      5-min Rain = 0
KPFS 241345Z 17013G18KT 21/16 A2984 RMK A01 T02060157  RH  077%=      5-min Rain = 0
KPFS 241350Z 17013KT 21/16 A2984 RMK A01 T02080158  RH  077%=      5-min Rain = 0
KPFS 241355Z 16014G19KT 21/16 A2984 RMK A01 T02100160  RH  077%=      5-min Rain = 0
KPFS 241400Z 17014KT 21/16 A2984 RMK A01 T02100159  RH  076%=      5-min Rain = 0
KPFS 241405Z 17013KT 21/16 A2984 RMK A01 T02110160  RH  076%=      5-min Rain = 0
KPFS 241410Z 17011G17KT 21/16 A2984 RMK A01 T02130161  RH  076%=      5-min Rain = 0
KPFS 241415Z 17013KT 22/16 A2984 RMK A01 T02160161  RH  074%=      5-min Rain = 0
KPFS 241420Z 17011KT 22/16 A2984 RMK A01 T02180161  RH  074%=      5-min Rain = 0
KPFS 241425Z 17012G17KT 22/16 A2984 RMK A01 T02210161  RH  072%=      5-min Rain = 0
KPFS 241430Z 17011G16KT 23/16 A2983 RMK A01 T02250161  RH  071%=      5-min Rain = 0
KPFS 241435Z 17012G17KT 23/16 A2983 RMK A01 T02270158  RH  068%=      5-min Rain = 0
KPFS 241440Z 17012G17KT 23/16 A2983 RMK A01 T02280157  RH  067%=      5-min Rain = 0
KPFS 241445Z 17012KT 23/16 A2983 RMK A01 T02310158  RH  067%=      5-min Rain = 0
KPFS 241450Z 17013G18KT 23/16 A2983 RMK A01 T02320159  RH  067%=      5-min Rain = 0
KPFS 241455Z 17013G18KT 24/16 A2982 RMK A01 T02350160  RH  066%=      5-min Rain = 0
KPFS 241500Z 17015G20KT 24/16 A2982 RMK A01 T02350155  RH  064%=      5-min Rain = 0
KPFS 241505Z 17015KT 24/16 A2982 RMK A01 T02360156  RH  064%=      5-min Rain = 0
KPFS 241510Z 17017KT 24/16 A2982 RMK A01 T02350155  RH  063%=      5-min Rain = 0
KPFS 241515Z 17015G22KT 24/16 A2982 RMK A01 T02390158  RH  063%=      5-min Rain = 0
KPFS 241520Z 18015G23KT 24/16 A2982 RMK A01 T02400156  RH  062%=      5-min Rain = 0
KPFS 241525Z 19015G20KT 24/15 A2982 RMK A01 T02420154  RH  060%=      5-min Rain = 0
KPFS 241530Z 17015G23KT 24/16 A2982 RMK A01 T02420156  RH  061%=      5-min Rain = 0
KPFS 241535Z 18015KT 25/16 A2982 RMK A01 T02460156  RH  060%=      5-min Rain = 0
KPFS 241540Z 18016G23KT 25/15 A2982 RMK A01 T02470154  RH  059%=      5-min Rain = 0
KPFS 241545Z 18018G26KT 25/15 A2982 RMK A01 T02480150  RH  057%=      5-min Rain = 0
KPFS 241550Z 18017G23KT 25/15 A2982 RMK A01 T02460147  RH  056%=      5-min Rain = 0
KPFS 241555Z 19017G22KT 25/15 A2982 RMK A01 T02490149  RH  056%=      5-min Rain = 0
KPFS 241600Z 18017G24KT 25/15 A2982 RMK A01 T02500148  RH  055%=      5-min Rain = 0
KPFS 241605Z 19020G25KT 25/15 A2982 RMK A01 T02490146  RH  055%=      5-min Rain = 0
KPFS 241610Z 19016G22KT 25/15 A2982 RMK A01 T02510149  RH  056%=      5-min Rain = 0
KPFS 241615Z 19014G21KT 26/16 A2982 RMK A01 T02560155  RH  056%=      5-min Rain = 0
KPFS 241620Z 19017G23KT 26/15 A2982 RMK A01 T02580152  RH  054%=      5-min Rain = 0
KPFS 241625Z 18018G23KT 26/15 A2981 RMK A01 T02570150  RH  054%=      5-min Rain = 0
KPFS 241630Z 19015G20KT 26/15 A2982 RMK A01 T02600154  RH  054%=      5-min Rain = 0
KPFS 241635Z 17015G21KT 26/16 A2982 RMK A01 T02630155  RH  054%=      5-min Rain = 0
KPFS 241640Z 17017G23KT 26/15 A2982 RMK A01 T02640153  RH  053%=      5-min Rain = 0
KPFS 241645Z 18017G24KT 27/15 A2981 RMK A01 T02660154  RH  053%=      5-min Rain = 0
KPFS 241650Z 18014G20KT 27/16 A2981 RMK A01 T02680157  RH  053%=      5-min Rain = 0
KPFS 241655Z 17018G24KT 27/16 A2981 RMK A01 T02680156  RH  053%=      5-min Rain = 0
KPFS 241700Z 17015KT 27/16 A2981 RMK A01 T02700158  RH  053%=      5-min Rain = 0
KPFS 241705Z 18015G20KT 27/16 A2981 RMK A01 T02720158  RH  052%=      5-min Rain = 0
KPFS 241710Z 17014KT 27/16 A2981 RMK A01 T02740159  RH  052%=      5-min Rain = 0
KPFS 241715Z 17014G20KT 28/16 A2981 RMK A01 T02760161  RH  052%=      5-min Rain = 0
KPFS 241720Z 17017G22KT 28/16 A2981 RMK A01 T02770159  RH  051%=      5-min Rain = 0
KPFS 241725Z 17014G23KT 28/16 A2981 RMK A01 T02770162  RH  052%=      5-min Rain = 0
KPFS 241730Z 17014G21KT 28/16 A2981 RMK A01 T02800164  RH  052%=      5-min Rain = 0
KPFS 241735Z 18014G21KT 28/16 A2981 RMK A01 T02790162  RH  052%=      5-min Rain = 0
KPFS 241740Z 17014G20KT 28/17 A298 RMK A01 T02840169  RH  052%=      5-min Rain = 0
KPFS 241745Z 17015G21KT 28/17 A298 RMK A01 T02830167  RH  052%=      5-min Rain = 0
KPFS 241750Z 17016G24KT 29/17 A2979 RMK A01 T02860169  RH  052%=      5-min Rain = 0
KPFS 241755Z 17019G27KT 29/17 A2979 RMK A01 T02850167  RH  051%=      5-min Rain = 0
KPFS 241800Z 17019G26KT 29/17 A2979 RMK A01 T02850168  RH  052%=      5-min Rain = 0
KPFS 241805Z 17019G26KT 28/17 A2978 RMK A01 T02840167  RH  051%=      5-min Rain = 0
KPFS 241810Z 18018G26KT 29/17 A2978 RMK A01 T02850167  RH  051%=      5-min Rain = 0
KPFS 241815Z 18017G25KT 29/17 A2978 RMK A01 T02890172  RH  052%=      5-min Rain = 0
KPFS 241820Z 17018G23KT 29/17 A2978 RMK A01 T02880170  RH  051%=      5-min Rain = 0
KPFS 241825Z 18015G21KT 29/17 A2978 RMK A01 T02910172  RH  051%=      5-min Rain = 0
KPFS 241830Z 16015G20KT 29/17 A2978 RMK A01 T02900171  RH  051%=      5-min Rain = 0
KPFS 241835Z 16018G25KT 29/17 A2977 RMK A01 T02890171  RH  051%=      5-min Rain = 0
KPFS 241840Z 16015G20KT 29/17 A2977 RMK A01 T02900172  RH  051%=      5-min Rain = 0
KPFS 241845Z 17014G19KT 29/17 A2977 RMK A01 T02940174  RH  051%=      5-min Rain = 0
KPFS 241850Z 19013G18KT 30/18 A2977 RMK A01 T02950176  RH  051%=      5-min Rain = 0
KPFS 241855Z 19016KT 30/17 A2977 RMK A01 T02970173  RH  050%=      5-min Rain = 0
KPFS 241900Z 18013G21KT 30/18 A2977 RMK A01 T02970175  RH  051%=      5-min Rain = 0
KPFS 241905Z 18017G23KT 30/17 A2976 RMK A01 T02950171  RH  049%=      5-min Rain = 0
KPFS 241910Z 17017G23KT 29/17 A2976 RMK A01 T02940172  RH  050%=      5-min Rain = 0
KPFS 241915Z 18013G21KT 30/17 A2976 RMK A01 T02990173  RH  049%=      5-min Rain = 0
KPFS 241920Z 17016G21KT 30/17 A2976 RMK A01 T02980173  RH  050%=      5-min Rain = 0
KPFS 241925Z 16014KT 30/17 A2975 RMK A01 T02980174  RH  050%=      5-min Rain = 0
KPFS 241930Z 17012G18KT 30/18 A2975 RMK A01 T03030178  RH  050%=      5-min Rain = 0
KPFS 241935Z 17014KT 30/18 A2975 RMK A01 T02950175  RH  051%=      5-min Rain = 0
KPFS 241940Z 19013G19KT 30/18 A2975 RMK A01 T02970175  RH  050%=      5-min Rain = 0
KPFS 241945Z 18011G17KT 30/18 A2975 RMK A01 T02980178  RH  051%=      5-min Rain = 0
KPFS 241950Z 18013G21KT 30/18 A2975 RMK A01 T03010176  RH  050%=      5-min Rain = 0
KPFS 241955Z 18012KT 31/18 A2975 RMK A01 T03060180  RH  049%=      5-min Rain = 0
KPFS 242000Z 18013G19KT 31/18 A2974 RMK A01 T03080180  RH  049%=      5-min Rain = 0
KPFS 242005Z 18012G19KT 31/18 A2974 RMK A01 T03070179  RH  049%=      5-min Rain = 0
KPFS 242010Z 18012G18KT 31/18 A2974 RMK A01 T03110180  RH  048%=      5-min Rain = 0
KPFS 242015Z 18013G19KT 31/18 A2974 RMK A01 T03080179  RH  048%=      5-min Rain = 0
KPFS 242020Z 18011G16KT 31/18 A2974 RMK A01 T03070179  RH  049%=      5-min Rain = 0
KPFS 242025Z 18013G18KT 30/18 A2974 RMK A01 T03040177  RH  049%=      5-min Rain = 0
KPFS 242030Z 17013KT 30/18 A2973 RMK A01 T03030178  RH  050%=      5-min Rain = 0
KPFS 242035Z 17011G16KT 31/18 A2973 RMK A01 T03080179  RH  049%=      5-min Rain = 0
KPFS 242040Z 16011KT 30/18 A2973 RMK A01 T03040177  RH  049%=      5-min Rain = 0
KPFS 242045Z 17011G16KT 30/18 A2972 RMK A01 T03020178  RH  050%=      5-min Rain = 0
KPFS 242050Z 17009G14KT 31/18 A2972 RMK A01 T03100181  RH  049%=      5-min Rain = 0
KPFS 242055Z 17012G17KT 31/18 A2972 RMK A01 T03140180  RH  047%=      5-min Rain = 0
KPFS 242100Z 18010G16KT 31/18 A2972 RMK A01 T03110177  RH  047%=      5-min Rain = 0
KPFS 242105Z 20010KT 31/18 A2971 RMK A01 T03140177  RH  046%=      5-min Rain = 0
KPFS 242110Z 18010KT 32/18 A2971 RMK A01 T03170178  RH  046%=      5-min Rain = 0
KPFS 242115Z 17010KT 32/18 A2971 RMK A01 T03170176  RH  045%=      5-min Rain = 0
KPFS 242120Z 16011G17KT 32/18 A297 RMK A01 T03170175  RH  045%=      5-min Rain = 0
KPFS 242125Z 17012KT 31/17 A297 RMK A01 T03050172  RH  047%=      5-min Rain = 0
KPFS 242130Z 18009KT 30/18 A297 RMK A01 T03030176  RH  049%=      5-min Rain = 0
KPFS 242135Z 20009KT 32/17 A297 RMK A01 T03150171  RH  044%=      5-min Rain = 0
KPFS 242140Z 19010G16KT 32/17 A2969 RMK A01 T03160172  RH  044%=      5-min Rain = 0
KPFS 242145Z 14009G14KT 32/18 A2969 RMK A01 T03170176  RH  045%=      5-min Rain = 0
KPFS 242150Z 16010KT 31/17 A2969 RMK A01 T03080168  RH  045%=      5-min Rain = 0
KPFS 242155Z 15007KT 31/17 A2968 RMK A01 T03140173  RH  045%=      5-min Rain = 0
KPFS 242200Z 16006G11KT 32/17 A2968 RMK A01 T03210168  RH  042%=      5-min Rain = 0
KPFS 242205Z 16008KT 32/17 A2967 RMK A01 T03200168  RH  042%=      5-min Rain = 0
KPFS 242210Z 15009KT 32/17 A2967 RMK A01 T03150167  RH  043%=      5-min Rain = 0
KPFS 242215Z 15009KT 30/17 A2967 RMK A01 T03040167  RH  046%=      5-min Rain = 0
KPFS 242220Z 16008KT 31/17 A2967 RMK A01 T03140168  RH  044%=      5-min Rain = 0
KPFS 242225Z 16009KT 32/17 A2966 RMK A01 T03180166  RH  042%=      5-min Rain = 0
KPFS 242230Z 16010G16KT 32/17 A2966 RMK A01 T03160167  RH  043%=      5-min Rain = 0
KPFS 242235Z 14011G16KT 32/17 A2966 RMK A01 T03150172  RH  044%=      5-min Rain = 0
KPFS 242240Z 14010KT 32/17 A2966 RMK A01 T03150168  RH  044%=      5-min Rain = 0
KPFS 242245Z 13009KT 31/17 A2966 RMK A01 T03100170  RH  045%=      5-min Rain = 0
KPFS 242250Z 14010KT 31/17 A2965 RMK A01 T03120167  RH  044%=      5-min Rain = 0
KPFS 242255Z 13010G15KT 32/17 A2965 RMK A01 T03170166  RH  043%=      5-min Rain = 0
KPFS 242300Z 14010KT 32/17 A2965 RMK A01 T03180167  RH  042%=      5-min Rain = 0
KPFS 242305Z 15008KT 32/17 A2965 RMK A01 T03180167  RH  042%=      5-min Rain = 0
KPFS 242310Z 14008KT 32/17 A2964 RMK A01 T03210171  RH  043%=      5-min Rain = 0
KPFS 242315Z 14009KT 32/17 A2964 RMK A01 T03190168  RH  043%=      5-min Rain = 0
KPFS 242320Z 14010G15KT 32/16 A2964 RMK A01 T03170164  RH  042%=      5-min Rain = 0
KPFS 242325Z 13011KT 31/17 A2963 RMK A01 T03120166  RH  043%=      5-min Rain = 0
KPFS 242330Z 13012KT 31/17 A2963 RMK A01 T03060167  RH  046%=      5-min Rain = 0
KPFS 242335Z 12011G16KT 30/17 A2963 RMK A01 T03010171  RH  048%=      5-min Rain = 0
KPFS 242340Z 12012KT 30/17 A2963 RMK A01 T02990171  RH  049%=      5-min Rain = 0
KPFS 242345Z 12011G16KT 30/17 A2963 RMK A01 T02970171  RH  049%=      5-min Rain = 0
KPFS 242350Z 12010KT 30/17 A2962 RMK A01 T02950173  RH  050%=      5-min Rain = 0
KPFS 242355Z 12010KT 29/17 A2962 RMK A01 T02930172  RH  050%=      5-min Rain = 0
KPFS 250000Z 12011KT 29/17 A2963 RMK A01 T02920171  RH  050%=      5-min Rain = 0
KPFS 250005Z 11010KT 29/17 A2962 RMK A01 T02910171  RH  051%=      5-min Rain = 0
KPFS 250010Z 11009KT 29/17 A2962 RMK A01 T02890171  RH  052%=      5-min Rain = 0
KPFS 250015Z 11008KT 29/17 A2962 RMK A01 T02860172  RH  053%=      5-min Rain = 0
KPFS 250020Z 11008KT 28/17 A2962 RMK A01 T02840173  RH  054%=      5-min Rain = 0
KPFS 250025Z 11008KT 28/17 A2962 RMK A01 T02820172  RH  054%=      5-min Rain = 0
KPFS 250030Z 11008KT 28/17 A2962 RMK A01 T02810171  RH  054%=      5-min Rain = 0
KPFS 250035Z 10011KT 28/17 A296 RMK A01 T02810168  RH  053%=      5-min Rain = 0
KPFS 250040Z 10010G15KT 28/17 A296 RMK A01 T02800168  RH  053%=      5-min Rain = 0
KPFS 250045Z 10008KT 28/17 A2962 RMK A01 T02800168  RH  053%=      5-min Rain = 0
KPFS 250050Z 10007KT 28/17 A2964 RMK A01 T02800169  RH  053%=      5-min Rain = 0
KPFS 250055Z 09008KT 28/17 A2964 RMK A01 T02790170  RH  054%=      5-min Rain = 0
KPFS 250100Z 09008KT 28/17 A2965 RMK A01 T02790171  RH  055%=      5-min Rain = 0
KPFS 250105Z 09007KT 28/17 A2965 RMK A01 T02790171  RH  055%=      5-min Rain = 0
KPFS 250110Z 09005KT 28/17 A2966 RMK A01 T02790171  RH  054%=      5-min Rain = 0
KPFS 250115Z 26020G44KT 25/15 A297 RMK A01 T02490145  RH  055%=      5-min Rain = 0
KPFS 250120Z 29033G54KT 18/12 A2967 RMK A01 T01800117  RH  069%=      5-min Rain = 0
KPFS 250125Z 30035G57KT 16/13 A2969 RMK A01 T01610125  RH  083%=      5-min Rain = 0
KPFS 250130Z 28027G39KT 15/13 A2974 RMK A01 T01540131  RH  089%=      5-min Rain = 0.02
KPFS 250135Z 23027G33KT 15/14 A2978 RMK A01 T01540136  RH  093%=      5-min Rain = 0.26
KPFS 250140Z 23021G28KT 16/14 A298 RMK A01 T01560141  RH  094%=      5-min Rain = 0.17
KPFS 250145Z 25015G21KT 16/14 A298 RMK A01 T01580144  RH  095%=      5-min Rain = 0.2
KPFS 250150Z 27016G22KT 16/14 A2978 RMK A01 T01580144  RH  095%=      5-min Rain = 0.1
KPFS 250155Z 29018G24KT 16/14 A2976 RMK A01 T01570143  RH  095%=      5-min Rain = 0.05
KPFS 250200Z 30015G22KT 16/14 A2975 RMK A01 T01550141  RH  095%=      5-min Rain = 0.01
KPFS 250205Z 30013G19KT 16/14 A2976 RMK A01 T01570142  RH  095%=      5-min Rain = 0.01
KPFS 250210Z 28010G15KT 16/14 A2978 RMK A01 T01590142  RH  094%=      5-min Rain = 0
KPFS 250215Z 27009G14KT 16/14 A298 RMK A01 T01600141  RH  092%=      5-min Rain = 0.02
KPFS 250220Z 29006KT 16/14 A298 RMK A01 T01590140  RH  092%=      5-min Rain = 0.06
KPFS 250225Z 31005KT 16/14 A298 RMK A01 T01590140  RH  092%=      5-min Rain = 0.02
KPFS 250230Z 31005KT 16/14 A2979 RMK A01 T01590140  RH  092%=      5-min Rain = 0.01
KPFS 250235Z 31007KT 16/14 A2978 RMK A01 T01600140  RH  092%=      5-min Rain = 0.01
KPFS 250240Z 32004KT 16/14 A2979 RMK A01 T01600140  RH  092%=      5-min Rain = 0.02
KPFS 250245Z 33003KT 16/14 A298 RMK A01 T01600141  RH  092%=      5-min Rain = 0.01
KPFS 250250Z 34001KT 16/14 A2981 RMK A01 T01600141  RH  093%=      5-min Rain = 0.02
KPFS 250255Z 01004KT 16/14 A2981 RMK A01 T01600142  RH  093%=      5-min Rain = 0.01
KPFS 250300Z 02007KT 16/14 A2981 RMK A01 T01600143  RH  094%=      5-min Rain = 0.01
KPFS 250305Z 02008KT 16/14 A2981 RMK A01 T01600144  RH  094%=      5-min Rain = 0
KPFS 250310Z 04007KT 16/15 A2981 RMK A01 T01600145  RH  095%=      5-min Rain = 0.01
KPFS 250315Z 04007KT 16/15 A298 RMK A01 T01610146  RH  095%=      5-min Rain = 0.01
KPFS 250320Z 04007KT 16/15 A2979 RMK A01 T01610146  RH  095%=      5-min Rain = 0.02
KPFS 250325Z 05008KT 16/15 A2978 RMK A01 T01610146  RH  095%=      5-min Rain = 0.02
KPFS 250330Z 05008KT 16/15 A2977 RMK A01 T01610146  RH  095%=      5-min Rain = 0.02
KPFS 250335Z 05008KT 16/15 A2977 RMK A01 T01600146  RH  096%=      5-min Rain = 0.03
KPFS 250340Z 06011KT 16/15 A2977 RMK A01 T01600147  RH  096%=      5-min Rain = 0.02
KPFS 250345Z 06011KT 16/15 A2976 RMK A01 T01600147  RH  096%=      5-min Rain = 0.01
KPFS 250350Z 05013KT 16/15 A2976 RMK A01 T01590145  RH  096%=      5-min Rain = 0.01
KPFS 250355Z 05015KT 16/15 A2976 RMK A01 T01600145  RH  095%=      5-min Rain = 0.01
KPFS 250400Z 06017G24KT 16/15 A2975 RMK A01 T01610145  RH  094%=      5-min Rain = 0.01
KPFS 250405Z 06019G27KT 16/15 A2974 RMK A01 T01620146  RH  094%=      5-min Rain = 0.01
KPFS 250410Z 06018G25KT 16/15 A2975 RMK A01 T01620145  RH  094%=      5-min Rain = 0.01
KPFS 250415Z 07019G25KT 16/15 A2975 RMK A01 T01610145  RH  094%=      5-min Rain = 0.01
KPFS 250420Z 06019G25KT 16/14 A2975 RMK A01 T01620144  RH  093%=      5-min Rain = 0
KPFS 250425Z 06018G25KT 16/14 A2975 RMK A01 T01630142  RH  092%=      5-min Rain = 0.01
KPFS 250430Z 05017G24KT 16/14 A2975 RMK A01 T01630141  RH  090%=      5-min Rain = 0
KPFS 250435Z 05017G22KT 16/14 A2975 RMK A01 T01640141  RH  090%=      5-min Rain = 0
KPFS 250440Z 05019G26KT 17/14 A2975 RMK A01 T01650141  RH  089%=      5-min Rain = 0
KPFS 250445Z 06017G24KT 17/14 A2976 RMK A01 T01670139  RH  087%=      5-min Rain = 0
KPFS 250450Z 06017G25KT 17/14 A2976 RMK A01 T01680138  RH  086%=      5-min Rain = 0
KPFS 250455Z 06019G28KT 17/14 A2976 RMK A01 T01690137  RH  085%=      5-min Rain = 0

Page generated in 0.0324 seconds.